Time;durP1;ratioP1;P1;durP2;ratioP2;P2;SDS_P1;SDS_P2;PMS_P1;PMS_P2;Temp;Humidity;BMP_temperature;BMP_pressure;BME280_temperature;BME280_humidity;BME280_pressure;Samples;Min_cycle;Max_cycle;Signal;HPM_P1;HPM_P2
2024/02/13 00:02:27;;;;;;;13.73;7.20;;;7.60;99.90;;;;;;5019065;28;20283;-88
2024/02/13 00:05:17;;;;;;;10.40;6.20;;;7.70;99.90;;;;;;5006705;28;20689;-87
2024/02/13 00:08:10;;;;;;;10.97;6.10;;;7.70;99.90;;;;;;5017483;28;20266;-87
2024/02/13 00:11:06;;;;;;;10.47;5.80;;;7.70;99.90;;;;;;5017396;28;20326;-87
2024/02/13 00:13:56;;;;;;;9.60;5.67;;;7.70;99.90;;;;;;5001246;28;20195;-88
2024/02/13 00:16:45;;;;;;;9.33;5.23;;;7.60;99.90;;;;;;5015279;28;20580;-88
2024/02/13 00:19:33;;;;;;;11.07;5.60;;;7.60;99.90;;;;;;5013116;28;20197;-88
2024/02/13 00:22:27;;;;;;;8.70;4.90;;;7.60;99.90;;;;;;4999022;28;20620;-88
2024/02/13 00:25:18;;;;;;;7.23;4.77;;;7.60;99.90;;;;;;5014586;28;20221;-88
2024/02/13 00:28:06;;;;;;;10.33;5.50;;;7.50;99.90;;;;;;4999986;28;20241;-89
2024/02/13 00:30:56;;;;;;;10.43;4.90;;;7.40;99.90;;;;;;4998971;28;20662;-87
2024/02/13 00:33:44;;;;;;;10.37;5.60;;;7.40;99.90;;;;;;4998589;28;20571;-88
2024/02/13 00:36:33;;;;;;;8.83;5.33;;;7.40;99.90;;;;;;4999948;28;20273;-88
2024/02/13 00:39:22;;;;;;;9.47;5.30;;;7.40;99.90;;;;;;5013095;28;20590;-89
2024/02/13 00:42:12;;;;;;;8.87;5.43;;;7.40;99.90;;;;;;5014061;28;20281;-88
2024/02/13 00:45:00;;;;;;;9.80;5.37;;;7.50;99.90;;;;;;5000106;28;20233;-89
2024/02/13 00:47:49;;;;;;;8.87;5.10;;;7.40;99.90;;;;;;4999498;28;20670;-89
2024/02/13 00:50:38;;;;;;;7.90;4.97;;;7.30;99.90;;;;;;5014681;28;20204;-88
2024/02/13 00:53:27;;;;;;;7.60;4.50;;;7.30;99.90;;;;;;4999145;28;20207;-89
2024/02/13 00:56:16;;;;;;;9.27;4.87;;;7.30;99.90;;;;;;5001032;28;20562;-89
2024/02/13 00:59:04;;;;;;;10.27;5.43;;;7.20;99.90;;;;;;5014826;28;20615;-89
2024/02/13 01:01:55;;;;;;;9.57;5.40;;;7.10;99.90;;;;;;5016630;28;20239;-89
2024/02/13 01:04:48;;;;;;;10.23;5.47;;;7.10;99.90;;;;;;5008202;28;20278;-89
2024/02/13 01:07:36;;;;;;;10.07;5.63;;;7.00;99.90;;;;;;5006020;28;20766;-89
2024/02/13 01:10:26;;;;;;;10.63;5.80;;;6.80;99.90;;;;;;5011663;28;20258;-89
2024/02/13 01:13:15;;;;;;;11.73;5.80;;;6.80;99.90;;;;;;5006115;28;20226;-89
2024/02/13 01:16:06;;;;;;;11.10;6.20;;;7.10;99.90;;;;;;5007260;28;20194;-88
2024/02/13 01:19:00;;;;;;;10.20;6.23;;;6.90;99.90;;;;;;5015871;28;20234;-88
2024/02/13 01:22:00;;;;;;;12.83;7.00;;;6.90;99.90;;;;;;5014509;28;20186;-89
2024/02/13 01:24:53;;;;;;;12.03;6.90;;;6.80;99.90;;;;;;5012141;28;20280;-87
2024/02/13 01:27:43;;;;;;;10.47;6.30;;;6.80;99.90;;;;;;5007828;28;20277;-87
2024/02/13 01:30:34;;;;;;;12.53;6.73;;;6.80;99.90;;;;;;5005198;28;20199;-88
2024/02/13 01:33:29;;;;;;;11.23;6.40;;;6.80;99.90;;;;;;5009552;28;20212;-89
2024/02/13 01:36:24;;;;;;;9.37;5.70;;;6.80;99.90;;;;;;4995740;28;20221;-89
2024/02/13 01:39:18;;;;;;;12.00;6.70;;;6.90;99.90;;;;;;4992946;28;20186;-89
2024/02/13 01:42:09;;;;;;;11.93;6.70;;;6.80;99.90;;;;;;4990362;28;20213;-89
2024/02/13 01:45:04;;;;;;;10.67;6.13;;;6.90;99.90;;;;;;4992602;28;20667;-88
2024/02/13 01:47:53;;;;;;;8.87;5.40;;;6.90;99.90;;;;;;4991467;28;20659;-89
2024/02/13 01:50:47;;;;;;;8.20;5.17;;;6.90;99.90;;;;;;4992344;28;20194;-88
2024/02/13 01:53:42;;;;;;;8.73;4.97;;;7.00;99.90;;;;;;4992162;28;20702;-89
2024/02/13 01:56:33;;;;;;;7.33;4.50;;;6.90;99.90;;;;;;4991726;28;20686;-87
2024/02/13 01:59:25;;;;;;;9.37;4.67;;;6.90;99.90;;;;;;4992277;28;20621;-88
2024/02/13 02:02:18;;;;;;;7.57;4.37;;;6.90;99.90;;;;;;4991867;28;20762;-89
2024/02/13 02:05:10;;;;;;;7.80;4.40;;;6.90;99.90;;;;;;4992265;28;20236;-88
2024/02/13 02:07:59;;;;;;;7.70;4.60;;;7.00;99.90;;;;;;4974477;28;20234;-89
2024/02/13 02:10:48;;;;;;;8.63;4.20;;;6.90;99.90;;;;;;4972333;28;20202;-89
2024/02/13 02:13:37;;;;;;;9.73;4.13;;;6.90;99.90;;;;;;4972689;28;20558;-89
2024/02/13 02:16:25;;;;;;;6.80;4.10;;;7.00;99.90;;;;;;4971510;28;20208;-88
2024/02/13 02:19:16;;;;;;;8.90;4.20;;;7.00;99.90;;;;;;4974244;28;20204;-88
2024/02/13 02:22:07;;;;;;;7.50;3.77;;;6.80;99.90;;;;;;4975557;28;20571;-89
2024/02/13 02:24:59;;;;;;;6.13;3.73;;;7.30;99.90;;;;;;4989150;28;20345;-88
2024/02/13 02:27:58;;;;;;;6.70;3.57;;;6.90;99.90;;;;;;4989152;28;20218;-89
2024/02/13 02:30:52;;;;;;;7.20;3.83;;;6.90;99.90;;;;;;4976339;28;20199;-89
2024/02/13 02:33:46;;;;;;;7.87;3.73;;;6.90;99.90;;;;;;4989688;28;20236;-88
2024/02/13 02:36:43;;;;;;;10.07;4.33;;;7.00;99.90;;;;;;4977864;28;20206;-89
2024/02/13 02:39:36;;;;;;;9.50;4.20;;;6.80;99.90;;;;;;4977193;28;20227;-88
2024/02/13 02:42:28;;;;;;;5.57;3.47;;;6.80;99.90;;;;;;4975881;28;20219;-88
2024/02/13 02:45:18;;;;;;;6.20;3.63;;;6.80;99.90;;;;;;4975157;28;20217;-88
2024/02/13 02:48:07;;;;;;;7.80;3.50;;;6.70;99.90;;;;;;4975913;28;20249;-87
2024/02/13 02:50:56;;;;;;;10.77;4.50;;;6.60;99.90;;;;;;4977388;28;20294;-87
2024/02/13 02:53:44;;;;;;;7.13;3.50;;;6.60;99.90;;;;;;4976323;28;20242;-87
2024/02/13 02:56:33;;;;;;;6.53;3.63;;;6.60;99.90;;;;;;4974915;28;20228;-88
2024/02/13 02:59:23;;;;;;;7.63;3.77;;;6.70;99.90;;;;;;4974747;28;20633;-88
2024/02/13 03:02:11;;;;;;;6.67;3.53;;;6.70;99.90;;;;;;4975146;28;20203;-88
2024/02/13 03:05:03;;;;;;;7.80;3.80;;;6.60;99.90;;;;;;4975441;28;20310;-88
2024/02/13 03:07:54;;;;;;;6.53;3.53;;;6.60;99.90;;;;;;5009538;28;20232;-88
2024/02/13 03:10:42;;;;;;;6.27;3.70;;;6.60;99.90;;;;;;4999601;28;20197;-88
2024/02/13 03:13:32;;;;;;;6.07;3.93;;;6.50;99.90;;;;;;5000704;28;20288;-88
2024/02/13 03:16:20;;;;;;;7.17;4.03;;;6.40;99.90;;;;;;5015818;28;20201;-88
2024/02/13 03:19:11;;;;;;;6.67;4.07;;;6.50;99.90;;;;;;5013250;28;20653;-88
2024/02/13 03:22:04;;;;;;;6.57;4.13;;;6.50;99.90;;;;;;5013575;28;20204;-88
2024/02/13 03:24:53;;;;;;;6.90;3.93;;;6.50;99.90;;;;;;4999090;28;20763;-88
2024/02/13 03:27:45;;;;;;;7.47;3.87;;;6.60;99.90;;;;;;5012524;28;20224;-88
2024/02/13 03:30:34;;;;;;;6.33;3.60;;;6.50;99.90;;;;;;4999714;28;20199;-88
2024/02/13 03:33:24;;;;;;;7.47;4.00;;;6.50;99.90;;;;;;5014651;28;20199;-88
2024/02/13 03:36:16;;;;;;;6.33;3.53;;;6.40;99.90;;;;;;4999741;28;20235;-88
2024/02/13 03:39:10;;;;;;;6.93;3.60;;;6.50;99.90;;;;;;5002206;28;20799;-88
2024/02/13 03:41:59;;;;;;;5.57;3.70;;;6.50;99.90;;;;;;5001050;28;20612;-88
2024/02/13 03:44:53;;;;;;;6.83;3.60;;;6.30;99.90;;;;;;5013999;28;20204;-88
2024/02/13 03:47:43;;;;;;;6.23;3.50;;;6.50;99.90;;;;;;5014251;28;20274;-88
2024/02/13 03:50:35;;;;;;;5.63;3.40;;;6.40;99.90;;;;;;4999243;28;20227;-88
2024/02/13 03:53:23;;;;;;;7.53;3.73;;;6.40;99.90;;;;;;4998582;28;20199;-88
2024/02/13 03:56:14;;;;;;;6.53;3.63;;;6.40;99.90;;;;;;5015741;28;20673;-88
2024/02/13 03:59:04;;;;;;;5.57;3.33;;;6.40;99.90;;;;;;5005055;28;20210;-88
2024/02/13 04:01:54;;;;;;;10.33;4.20;;;6.50;99.90;;;;;;5023199;28;20209;-87
2024/02/13 04:04:43;;;;;;;5.50;3.20;;;6.60;99.90;;;;;;5007284;28;20206;-89
2024/02/13 04:07:31;;;;;;;6.47;3.90;;;6.60;99.90;;;;;;5018545;28;20239;-88
2024/02/13 04:10:20;;;;;;;7.10;3.43;;;6.60;99.90;;;;;;5013454;28;20193;-89
2024/02/13 04:13:08;;;;;;;5.40;3.10;;;6.70;99.90;;;;;;4999417;28;20703;-88
2024/02/13 04:15:57;;;;;;;4.83;3.20;;;6.50;99.90;;;;;;4999367;28;20216;-88
2024/02/13 04:18:46;;;;;;;8.03;3.50;;;6.40;99.90;;;;;;5012652;28;20198;-88
2024/02/13 04:21:34;;;;;;;5.37;3.30;;;6.40;99.90;;;;;;5012355;28;20201;-88
2024/02/13 04:24:28;;;;;;;5.73;3.50;;;6.40;99.90;;;;;;5012492;28;20200;-88
2024/02/13 04:27:20;;;;;;;5.07;2.83;;;6.30;99.90;;;;;;5012809;28;20210;-88
2024/02/13 04:30:18;;;;;;;4.30;2.50;;;6.30;99.90;;;;;;5028606;28;20212;-88
2024/02/13 04:33:12;;;;;;;2.80;2.27;;;6.20;99.90;;;;;;5012611;28;20254;-88
2024/02/13 04:36:06;;;;;;;3.03;2.10;;;6.20;99.90;;;;;;5015359;28;20198;-88
2024/02/13 04:38:58;;;;;;;3.37;2.07;;;6.20;99.90;;;;;;5016576;28;20246;-89
2024/02/13 04:41:46;;;;;;;3.83;2.30;;;6.20;99.90;;;;;;5012902;28;20286;-88
2024/02/13 04:44:35;;;;;;;3.07;2.20;;;6.20;99.90;;;;;;5011982;28;20672;-88
2024/02/13 04:47:26;;;;;;;3.57;2.30;;;6.20;99.90;;;;;;5013194;28;20301;-89
2024/02/13 04:50:17;;;;;;;2.20;1.83;;;6.20;99.90;;;;;;5012385;28;20195;-89
2024/02/13 04:53:08;;;;;;;3.93;2.00;;;6.10;99.90;;;;;;5011574;28;20218;-88
2024/02/13 04:56:00;;;;;;;2.47;2.10;;;6.10;99.90;;;;;;5012664;28;20355;-89
2024/02/13 04:58:48;;;;;;;2.97;2.03;;;6.10;99.90;;;;;;4998628;28;20227;-88
2024/02/13 05:01:39;;;;;;;2.13;1.90;;;6.00;99.90;;;;;;5012364;28;20201;-88
2024/02/13 05:07:23;;;;;;;2.13;1.93;;;6.00;99.90;;;;;;5011709;28;20254;-88
2024/02/13 05:10:15;;;;;;;2.70;2.20;;;5.90;99.90;;;;;;5011231;28;20209;-88
2024/02/13 05:13:06;;;;;;;3.33;2.17;;;5.90;99.90;;;;;;4997991;28;20279;-88
2024/02/13 05:16:03;;;;;;;3.93;2.30;;;5.80;99.90;;;;;;4997537;28;20208;-88
2024/02/13 05:18:55;;;;;;;4.57;2.30;;;5.90;99.90;;;;;;4998195;28;20220;-89
2024/02/13 05:21:50;;;;;;;2.87;2.30;;;5.80;99.90;;;;;;5014005;28;20202;-89
2024/02/13 05:24:39;;;;;;;3.80;2.40;;;5.70;99.90;;;;;;4997058;28;20200;-89
2024/02/13 05:27:28;;;;;;;3.30;2.60;;;5.60;99.90;;;;;;4998822;28;20231;-89
2024/02/13 05:30:22;;;;;;;3.23;2.50;;;5.70;99.90;;;;;;4998222;28;20579;-90
2024/02/13 05:33:14;;;;;;;3.37;2.57;;;5.70;99.90;;;;;;4998665;28;20297;-89
2024/02/13 05:36:04;;;;;;;2.83;2.40;;;5.60;99.90;;;;;;4997526;28;20284;-89
2024/02/13 05:38:52;;;;;;;4.23;2.90;;;5.60;99.90;;;;;;5012630;28;20197;-90
2024/02/13 05:41:46;;;;;;;3.93;3.10;;;5.60;99.90;;;;;;4997648;28;20606;-89
2024/02/13 05:44:40;;;;;;;3.63;2.80;;;5.90;99.90;;;;;;5011839;28;20652;-90
2024/02/13 05:47:35;;;;;;;4.03;3.00;;;5.60;99.90;;;;;;5012103;28;20207;-89
2024/02/13 05:50:25;;;;;;;4.80;3.20;;;5.30;99.90;;;;;;4997886;28;20275;-89
2024/02/13 05:53:14;;;;;;;4.83;3.20;;;5.60;99.90;;;;;;4998889;28;20204;-89
2024/02/13 05:56:03;;;;;;;5.37;3.73;;;5.50;99.90;;;;;;4997467;28;20205;-89
2024/02/13 05:59:03;;;;;;;5.00;3.53;;;5.50;99.90;;;;;;5002461;28;20206;-89
2024/02/13 06:01:52;;;;;;;4.03;3.30;;;5.50;99.90;;;;;;5002643;28;20662;-89
2024/02/13 06:04:41;;;;;;;6.43;4.10;;;5.50;99.90;;;;;;5016552;28;20202;-88
2024/02/13 06:07:30;;;;;;;4.77;3.50;;;5.50;99.90;;;;;;5001703;28;20241;-89
2024/02/13 06:10:19;;;;;;;5.43;3.43;;;5.50;99.90;;;;;;5002744;28;20336;-89
2024/02/13 06:13:08;;;;;;;6.63;3.80;;;5.50;99.90;;;;;;5015544;28;20304;-88
2024/02/13 06:15:57;;;;;;;5.97;3.90;;;5.50;99.90;;;;;;5001916;28;20203;-88
2024/02/13 06:18:47;;;;;;;5.83;4.10;;;5.40;99.90;;;;;;5003504;28;20588;-89
2024/02/13 06:21:35;;;;;;;5.50;4.27;;;5.50;99.90;;;;;;5002314;28;20198;-88
2024/02/13 06:24:24;;;;;;;7.67;4.23;;;5.60;99.90;;;;;;5002422;28;20623;-87
2024/02/13 06:27:12;;;;;;;6.57;4.43;;;5.60;99.90;;;;;;5017118;28;20225;-88
2024/02/13 06:30:01;;;;;;;7.30;4.30;;;5.60;99.90;;;;;;5015307;28;20199;-88
2024/02/13 06:32:50;;;;;;;6.10;4.53;;;5.60;99.90;;;;;;5000261;28;20255;-87
2024/02/13 06:35:42;;;;;;;6.80;4.77;;;5.60;99.90;;;;;;5001667;28;20281;-88
2024/02/13 06:38:30;;;;;;;7.73;4.73;;;5.50;99.90;;;;;;5000532;28;20231;-87
2024/02/13 06:41:19;;;;;;;8.03;4.70;;;5.70;99.90;;;;;;5002721;28;20199;-87
2024/02/13 06:44:08;;;;;;;7.27;4.93;;;5.60;99.90;;;;;;5001536;28;20208;-86
2024/02/13 06:46:56;;;;;;;6.53;4.90;;;5.70;99.90;;;;;;5016452;28;20221;-87
2024/02/13 06:49:44;;;;;;;8.27;4.80;;;5.50;99.90;;;;;;5014524;28;20208;-88
2024/02/13 06:52:33;;;;;;;7.33;4.60;;;5.60;99.90;;;;;;4999988;28;21071;-87
2024/02/13 06:55:21;;;;;;;6.97;4.57;;;5.70;99.90;;;;;;5014501;28;20197;-87
2024/02/13 06:58:11;;;;;;;9.33;4.80;;;5.60;99.90;;;;;;5001721;28;20225;-88
2024/02/13 07:01:02;;;;;;;6.77;4.53;;;5.70;99.90;;;;;;5013529;28;20203;-88
2024/02/13 07:03:53;;;;;;;6.63;4.33;;;5.70;99.90;;;;;;4999582;28;20252;-88
2024/02/13 07:06:45;;;;;;;5.23;3.93;;;5.70;99.90;;;;;;5014706;28;20229;-88
2024/02/13 07:09:59;;;;;;;6.13;3.87;;;5.70;99.90;;;;;;5013274;28;20208;-89
2024/02/13 07:12:48;;;;;;;6.13;4.20;;;5.70;99.90;;;;;;5013272;28;20683;-88
2024/02/13 07:15:37;;;;;;;7.63;4.23;;;5.80;99.90;;;;;;5014884;28;20425;-88
2024/02/13 07:18:26;;;;;;;7.07;4.10;;;5.80;99.90;;;;;;5000972;28;20200;-88
2024/02/13 07:21:15;;;;;;;7.07;3.90;;;5.80;99.90;;;;;;4999599;28;20208;-88
2024/02/13 07:24:03;;;;;;;6.87;3.80;;;5.80;99.90;;;;;;5000449;28;20231;-88
2024/02/13 07:26:51;;;;;;;7.93;4.40;;;5.70;99.90;;;;;;4999474;28;20237;-88
2024/02/13 07:29:43;;;;;;;7.67;3.97;;;5.80;99.90;;;;;;5000246;28;20212;-88
2024/02/13 07:32:31;;;;;;;5.87;3.90;;;5.90;99.90;;;;;;4999859;28;20198;-88
2024/02/13 07:35:21;;;;;;;6.57;3.67;;;5.90;99.90;;;;;;5014482;28;20204;-87
2024/02/13 07:38:10;;;;;;;5.70;3.87;;;6.00;99.90;;;;;;5000428;28;20652;-86
2024/02/13 07:41:01;;;;;;;6.17;3.30;;;6.00;99.90;;;;;;5000524;28;20200;-87
2024/02/13 07:43:50;;;;;;;6.43;3.90;;;6.00;99.90;;;;;;5014851;28;20197;-88
2024/02/13 07:46:49;;;;;;;6.97;3.70;;;6.00;99.90;;;;;;4999630;28;20236;-88
2024/02/13 07:49:38;;;;;;;5.87;3.90;;;6.10;99.90;;;;;;4999800;28;20694;-88
2024/02/13 07:52:30;;;;;;;5.87;3.70;;;6.20;99.90;;;;;;5000287;28;20235;-87
2024/02/13 07:55:24;;;;;;;5.83;3.93;;;6.10;99.90;;;;;;5012327;28;20203;-88
2024/02/13 07:58:17;;;;;;;6.57;3.43;;;6.20;99.90;;;;;;5012870;28;20210;-88
2024/02/13 08:01:09;;;;;;;7.13;3.83;;;6.20;99.90;;;;;;4999623;28;20573;-89
2024/02/13 08:04:00;;;;;;;8.13;3.83;;;6.20;99.90;;;;;;4999117;28;20644;-89
2024/02/13 08:06:48;;;;;;;5.77;3.87;;;6.30;99.90;;;;;;4985672;28;20248;-88
2024/02/13 08:09:40;;;;;;;7.80;4.30;;;6.40;99.90;;;;;;4973373;28;20261;-89
2024/02/13 08:12:35;;;;;;;8.70;4.43;;;6.40;99.90;;;;;;4974479;28;20229;-89
2024/02/13 08:15:31;;;;;;;7.90;4.60;;;6.30;99.90;;;;;;4974830;28;20210;-89
2024/02/13 08:18:38;;;;;;;8.73;4.23;;;6.20;99.90;;;;;;5130102;27;20541;-90
2024/02/13 08:21:30;;;;;;;7.70;4.40;;;6.40;99.90;;;;;;5095807;28;20220;-90
2024/02/13 08:24:19;;;;;;;9.20;5.27;;;6.50;99.90;;;;;;5094898;28;20185;-89
2024/02/13 08:27:12;;;;;;;7.60;4.60;;;6.80;99.90;;;;;;5100984;28;20595;-89
2024/02/13 08:30:09;;;;;;;10.40;4.90;;;6.60;99.90;;;;;;5075280;28;20264;-89
2024/02/13 08:33:04;;;;;;;8.27;4.90;;;6.70;99.90;;;;;;5073807;28;20185;-89
2024/02/13 08:35:59;;;;;;;10.30;5.53;;;6.90;99.90;;;;;;5090178;28;20272;-88
2024/02/13 08:38:49;;;;;;;12.13;5.67;;;6.90;99.90;;;;;;5092910;28;20196;-88
2024/02/13 08:41:48;;;;;;;13.07;6.00;;;6.80;99.90;;;;;;5091187;28;20687;-89
2024/02/13 08:44:42;;;;;;;14.30;7.27;;;6.90;99.90;;;;;;5075504;28;20240;-90
2024/02/13 08:47:36;;;;;;;13.80;7.30;;;6.90;99.90;;;;;;5082431;28;20205;-90
2024/02/13 08:50:32;;;;;;;14.17;8.07;;;7.10;99.90;;;;;;5088139;28;20205;-87
2024/02/13 08:53:25;;;;;;;15.97;8.27;;;7.10;99.90;;;;;;5096636;28;20197;-88
2024/02/13 08:56:20;;;;;;;12.97;8.10;;;7.10;99.90;;;;;;5083649;28;20198;-88
2024/02/13 08:59:14;;;;;;;15.07;7.93;;;7.30;99.90;;;;;;5082578;28;20197;-89
2024/02/13 09:02:15;;;;;;;16.63;8.20;;;7.30;99.90;;;;;;5074335;28;20200;-89
2024/02/13 09:05:05;;;;;;;13.40;8.17;;;7.50;99.90;;;;;;5076817;28;20286;-90
2024/02/13 09:07:57;;;;;;;18.47;8.37;;;7.50;99.90;;;;;;5075127;28;20199;-90
2024/02/13 09:10:48;;;;;;;12.03;7.83;;;7.40;99.90;;;;;;5073103;28;20212;-90
2024/02/13 09:13:38;;;;;;;15.33;8.40;;;7.40;99.90;;;;;;5075046;28;20239;-89
2024/02/13 09:16:27;;;;;;;12.83;8.00;;;7.60;99.90;;;;;;5071064;28;20192;-89
2024/02/13 09:19:18;;;;;;;13.60;8.43;;;7.40;99.90;;;;;;5055845;28;20273;-90
2024/02/13 09:22:07;;;;;;;14.70;8.10;;;7.30;99.90;;;;;;5054501;28;20202;-89
2024/02/13 09:24:59;;;;;;;14.43;8.07;;;7.30;99.90;;;;;;5053930;28;20275;-88
2024/02/13 09:27:54;;;;;;;15.17;8.20;;;7.20;99.90;;;;;;5054659;28;20234;-89
2024/02/13 09:30:47;;;;;;;14.13;7.93;;;7.20;99.90;;;;;;5044480;28;20197;-88
2024/02/13 09:33:35;;;;;;;14.37;8.53;;;7.30;99.90;;;;;;5054690;28;20187;-90
2024/02/13 09:36:27;;;;;;;14.33;7.13;;;7.30;99.90;;;;;;5040308;28;20200;-90
2024/02/13 09:39:19;;;;;;;14.83;7.30;;;7.20;99.90;;;;;;5041082;28;20205;-89
2024/02/13 09:42:16;;;;;;;14.33;7.20;;;7.30;99.90;;;;;;5040886;28;20239;-90
2024/02/13 09:45:07;;;;;;;14.97;7.70;;;7.30;99.90;;;;;;5055698;28;20268;-90
2024/02/13 09:48:07;;;;;;;13.40;6.93;;;7.40;99.90;;;;;;5040350;28;20207;-89
2024/02/13 09:51:07;;;;;;;16.03;7.30;;;7.50;99.90;;;;;;5057432;28;20265;-89
2024/02/13 09:53:59;;;;;;;13.30;6.83;;;7.50;99.90;;;;;;5039839;28;20188;-90
2024/02/13 09:56:51;;;;;;;14.73;7.03;;;7.40;99.90;;;;;;5038883;28;20359;-89
2024/02/13 09:59:42;;;;;;;12.03;6.87;;;7.30;99.90;;;;;;5039812;28;20206;-88
2024/02/13 10:02:31;;;;;;;13.23;7.10;;;7.40;99.90;;;;;;5054023;28;20227;-90
2024/02/13 10:05:20;;;;;;;11.00;6.17;;;7.40;99.90;;;;;;5040372;28;20237;-90
2024/02/13 10:08:11;;;;;;;12.50;6.80;;;7.30;99.90;;;;;;5040780;28;20199;-90
2024/02/13 10:11:16;;;;;;;12.13;6.33;;;7.30;99.90;;;;;;5042562;28;20206;-88
2024/02/13 10:14:24;;;;;;;11.57;6.07;;;7.30;99.90;;;;;;5047604;28;20272;-90
2024/02/13 10:17:22;;;;;;;10.73;6.17;;;7.30;99.90;;;;;;5055347;28;20236;-91
2024/02/13 10:20:18;;;;;;;15.80;6.77;;;7.30;99.90;;;;;;5084364;28;20199;-90
2024/02/13 10:23:11;;;;;;;12.60;7.03;;;7.30;99.90;;;;;;5059982;28;20675;-91
2024/02/13 10:26:12;;;;;;;13.97;7.43;;;7.40;99.90;;;;;;5066823;28;20187;-91
2024/02/13 10:29:10;;;;;;;16.13;7.47;;;7.30;99.90;;;;;;5083661;28;20262;-91
2024/02/13 10:32:11;;;;;;;11.60;6.53;;;7.40;99.90;;;;;;5084059;28;20192;-91
2024/02/13 10:35:06;;;;;;;12.60;6.53;;;7.50;99.90;;;;;;5068683;28;20682;-91
2024/02/13 10:37:57;;;;;;;11.60;6.47;;;7.40;99.90;;;;;;5066583;28;20297;-90
2024/02/13 10:40:58;;;;;;;12.33;5.87;;;7.40;99.90;;;;;;5058489;28;20191;-90
2024/02/13 10:43:57;;;;;;;11.67;5.73;;;7.30;99.90;;;;;;5059403;28;20237;-91
2024/02/13 10:46:56;;;;;;;10.07;5.60;;;7.30;99.90;;;;;;5082753;28;20207;-91
2024/02/13 10:49:58;;;;;;;9.67;5.83;;;7.40;99.90;;;;;;5062519;28;20233;-90
2024/02/13 10:53:03;;;;;;;11.13;5.63;;;7.40;99.90;;;;;;5060542;28;20195;-91
2024/02/13 10:56:02;;;;;;;8.80;5.50;;;7.20;99.90;;;;;;5072641;28;20571;-91
2024/02/13 10:58:52;;;;;;;10.63;5.70;;;7.40;99.90;;;;;;5060417;28;20224;-90
2024/02/13 11:01:46;;;;;;;9.33;5.00;;;7.40;99.90;;;;;;5061330;28;20568;-90
2024/02/13 11:04:43;;;;;;;10.07;5.73;;;7.40;99.90;;;;;;5079358;28;20224;-89
2024/02/13 11:07:37;;;;;;;9.03;5.30;;;7.50;99.90;;;;;;5069582;28;20198;-90
2024/02/13 11:10:34;;;;;;;6.50;4.53;;;7.50;99.90;;;;;;5060177;28;20203;-91
2024/02/13 11:13:29;;;;;;;9.40;4.47;;;7.60;99.90;;;;;;5059290;28;20221;-90
2024/02/13 11:16:23;;;;;;;9.10;4.27;;;7.40;99.90;;;;;;5055623;28;20199;-90
2024/02/13 11:19:15;;;;;;;8.77;4.43;;;7.10;99.90;;;;;;5038564;28;20216;-90
2024/02/13 11:22:09;;;;;;;7.13;4.70;;;7.20;99.90;;;;;;5038687;28;20862;-90
2024/02/13 11:25:08;;;;;;;7.30;4.70;;;7.40;99.90;;;;;;5038478;28;20399;-90
2024/02/13 11:28:07;;;;;;;8.53;5.17;;;7.70;99.90;;;;;;5052019;28;20210;-90
2024/02/13 11:30:59;;;;;;;10.40;5.37;;;7.60;99.90;;;;;;5041092;28;20198;-90
2024/02/13 11:34:05;;;;;;;10.67;6.30;;;7.70;99.90;;;;;;5051711;28;20203;-90
2024/02/13 11:37:02;;;;;;;10.63;5.00;;;8.00;99.90;;;;;;5052226;28;20232;-90
2024/02/13 11:39:59;;;;;;;10.23;5.30;;;7.80;99.90;;;;;;5038009;28;20192;-90
2024/02/13 11:42:53;;;;;;;10.97;5.17;;;7.70;99.90;;;;;;5038913;28;20689;-90
2024/02/13 11:45:44;;;;;;;9.60;5.37;;;7.60;99.90;;;;;;5037041;28;20200;-90
2024/02/13 11:48:32;;;;;;;12.50;5.40;;;7.80;99.90;;;;;;5038384;28;20192;-90
2024/02/13 11:51:25;;;;;;;12.60;5.50;;;7.90;99.90;;;;;;5038279;28;20199;-90
2024/02/13 11:54:13;;;;;;;14.03;5.30;;;7.90;99.90;;;;;;5039713;28;20211;-90
2024/02/13 11:57:06;;;;;;;11.97;5.67;;;8.00;99.90;;;;;;5037811;28;20231;-91
2024/02/13 12:00:01;;;;;;;12.07;5.63;;;8.00;99.90;;;;;;5026371;28;20277;-91
2024/02/13 12:02:54;;;;;;;11.30;5.30;;;8.00;99.90;;;;;;5039879;28;20197;-91
2024/02/13 12:05:43;;;;;;;10.23;5.40;;;7.80;99.90;;;;;;5047000;28;20193;-91
2024/02/13 12:08:41;;;;;;;8.80;5.07;;;7.80;99.90;;;;;;5037187;28;20577;-90
2024/02/13 12:11:39;;;;;;;9.80;5.50;;;7.70;99.90;;;;;;5036572;28;20221;-90
2024/02/13 12:14:31;;;;;;;10.60;5.23;;;7.50;99.90;;;;;;5037307;28;20193;-90
2024/02/13 12:17:26;;;;;;;7.30;4.47;;;7.40;99.90;;;;;;5047753;28;20688;-90
2024/02/13 12:20:19;;;;;;;9.97;4.50;;;7.60;99.90;;;;;;5057375;28;20525;-90
2024/02/13 12:23:12;;;;;;;7.90;4.10;;;7.40;99.90;;;;;;5056585;28;20344;-91
2024/02/13 12:26:06;;;;;;;8.03;4.37;;;7.40;99.90;;;;;;5057561;28;20215;-91
2024/02/13 12:29:00;;;;;;;9.20;3.80;;;7.40;99.90;;;;;;5077955;28;20559;-90
2024/02/13 12:31:51;;;;;;;7.23;3.47;;;7.30;99.90;;;;;;5063542;28;20735;-90
2024/02/13 12:34:42;;;;;;;7.77;4.23;;;7.30;99.90;;;;;;5076764;28;20193;-90
2024/02/13 12:37:31;;;;;;;8.77;4.23;;;7.20;99.90;;;;;;5062372;28;20209;-90
2024/02/13 12:40:26;;;;;;;6.50;3.90;;;7.10;99.90;;;;;;5058577;28;20202;-90
2024/02/13 12:43:26;;;;;;;9.57;4.17;;;7.10;99.90;;;;;;5058262;28;20234;-90
2024/02/13 12:46:21;;;;;;;7.33;3.80;;;7.10;99.90;;;;;;5056430;28;20197;-90
2024/02/13 12:49:16;;;;;;;8.00;3.90;;;7.10;99.90;;;;;;5057992;28;20252;-90
2024/02/13 12:52:11;;;;;;;9.50;3.80;;;7.00;99.90;;;;;;5070266;28;20193;-90
2024/02/13 12:55:02;;;;;;;14.40;4.67;;;6.80;99.90;;;;;;5074948;28;20215;-88
2024/02/13 12:58:03;;;;;;;7.10;4.40;;;7.10;99.90;;;;;;5084515;28;20214;-89
2024/02/13 13:01:17;;;;;;;7.97;4.17;;;7.10;99.90;;;;;;5076882;28;20655;-90
2024/02/13 13:04:12;;;;;;;7.67;4.20;;;7.20;99.90;;;;;;5076889;28;20210;-90
2024/02/13 13:07:15;;;;;;;6.43;3.87;;;7.10;99.90;;;;;;5085700;28;20282;-90
2024/02/13 13:10:19;;;;;;;13.43;4.13;;;7.40;99.90;;;;;;5064357;28;20216;-90
2024/02/13 13:13:20;;;;;;;6.30;3.80;;;8.60;99.90;;;;;;5066822;28;20222;-90
2024/02/13 13:16:15;;;;;;;7.90;3.60;;;9.10;99.90;;;;;;5065646;28;20252;-90
2024/02/13 13:19:09;;;;;;;6.03;3.20;;;8.90;99.90;;;;;;5077557;28;20697;-91
2024/02/13 13:22:02;;;;;;;8.40;3.43;;;8.50;99.90;;;;;;5083505;28;20564;-90
2024/02/13 13:25:09;;;;;;;7.67;3.33;;;8.60;99.90;;;;;;5085378;28;20186;-91
2024/02/13 13:28:15;;;;;;;9.30;3.17;;;8.50;99.90;;;;;;5070378;28;20227;-91
2024/02/13 13:31:14;;;;;;;9.03;2.90;;;8.30;99.90;;;;;;5069404;28;20625;-91
2024/02/13 13:34:07;;;;;;;4.33;2.30;;;8.00;99.90;;;;;;5061627;28;20219;-90
2024/02/13 13:37:02;;;;;;;5.27;2.30;;;7.90;99.90;;;;;;5076213;28;20201;-89
2024/02/13 13:39:59;;;;;;;4.07;2.63;;;7.70;99.90;;;;;;5071191;28;20242;-91
2024/02/13 13:43:06;;;;;;;5.97;2.90;;;7.90;99.90;;;;;;5066247;28;20709;-90
2024/02/13 13:46:13;;;;;;;7.80;2.73;;;8.10;99.90;;;;;;5053818;28;20201;-91
2024/02/13 13:49:11;;;;;;;4.50;2.67;;;8.20;99.90;;;;;;5076439;28;20327;-90
2024/02/13 13:52:02;;;;;;;6.53;2.53;;;8.40;99.90;;;;;;5061564;28;20202;-91
2024/02/13 13:54:57;;;;;;;6.07;2.33;;;9.00;99.90;;;;;;5075225;28;20196;-90
2024/02/13 13:57:59;;;;;;;5.33;2.30;;;9.70;99.90;;;;;;5050782;28;20317;-90
2024/02/13 14:00:57;;;;;;;6.53;2.50;;;9.70;99.90;;;;;;5061708;28;20201;-90
2024/02/13 14:04:03;;;;;;;3.87;2.20;;;9.80;99.90;;;;;;5065068;28;20194;-91
2024/02/13 14:06:55;;;;;;;5.43;2.30;;;10.50;99.90;;;;;;5063721;28;20657;-91
2024/02/13 14:09:44;;;;;;;3.93;1.90;;;10.40;99.90;;;;;;5072899;28;20254;-92
2024/02/13 14:12:32;;;;;;;5.70;2.50;;;10.60;99.90;;;;;;5059519;28;20688;-91
2024/02/13 14:15:24;;;;;;;7.13;2.57;;;10.60;99.90;;;;;;5059556;28;20216;-92
2024/02/13 14:18:14;;;;;;;4.20;2.50;;;10.90;99.90;;;;;;5058530;28;20233;-91
2024/02/13 14:21:10;;;;;;;7.50;2.87;;;10.30;99.90;;;;;;5040756;28;20222;-91
2024/02/13 14:24:02;;;;;;;5.30;2.47;;;10.30;99.90;;;;;;5040389;28;20187;-91
2024/02/13 14:26:57;;;;;;;5.33;2.53;;;10.10;99.90;;;;;;5053319;28;20215;-90
2024/02/13 14:29:50;;;;;;;4.53;2.20;;;10.20;99.90;;;;;;5056141;28;20226;-89
2024/02/13 14:32:46;;;;;;;4.47;2.40;;;9.70;99.90;;;;;;5054228;28;20228;-89
2024/02/13 14:35:39;;;;;;;6.53;2.73;;;9.00;99.90;;;;;;5039832;28;20209;-89
2024/02/13 14:38:34;;;;;;;5.17;2.10;;;8.70;99.90;;;;;;5038080;28;20301;-90
2024/02/13 14:41:25;;;;;;;5.20;2.27;;;8.50;99.90;;;;;;5052797;28;20195;-91
2024/02/13 14:44:14;;;;;;;4.40;2.17;;;8.40;99.90;;;;;;5053470;28;20206;-91
2024/02/13 14:47:08;;;;;;;6.53;2.30;;;8.70;99.90;;;;;;5038642;28;20660;-91
2024/02/13 14:50:01;;;;;;;3.83;1.80;;;8.90;99.90;;;;;;5038079;28;20194;-89
2024/02/13 14:52:55;;;;;;;4.97;2.07;;;8.70;99.90;;;;;;5053073;28;20203;-89
2024/02/13 14:55:48;;;;;;;3.83;2.03;;;9.00;99.90;;;;;;5054446;28;20190;-91
2024/02/13 14:58:39;;;;;;;7.17;2.90;;;9.10;99.90;;;;;;5042437;28;20309;-90
2024/02/13 15:01:34;;;;;;;7.53;2.53;;;8.90;99.90;;;;;;5056899;28;20199;-91
2024/02/13 15:04:27;;;;;;;5.13;1.97;;;9.00;99.90;;;;;;5042676;28;20651;-90
2024/02/13 15:07:19;;;;;;;3.27;1.63;;;8.60;99.90;;;;;;5041960;28;20225;-91
2024/02/13 15:10:11;;;;;;;4.93;1.30;;;8.20;99.90;;;;;;5056194;28;20202;-90